sensor_id;sensor_type;location;lat;lon;timestamp;temperature;humidity
45953;DHT22;31662;52.262;10.522;2022-08-25T00:01:16;20.40;83.20
45953;DHT22;31662;52.262;10.522;2022-08-25T00:03:43;20.40;82.90
45953;DHT22;31662;52.262;10.522;2022-08-25T00:06:10;20.40;83.60
45953;DHT22;31662;52.262;10.522;2022-08-25T00:08:36;20.40;84.30
45953;DHT22;31662;52.262;10.522;2022-08-25T00:11:05;20.30;84.70
45953;DHT22;31662;52.262;10.522;2022-08-25T00:13:32;20.30;85.00
45953;DHT22;31662;52.262;10.522;2022-08-25T00:15:57;20.20;84.80
45953;DHT22;31662;52.262;10.522;2022-08-25T00:18:23;20.20;85.40
45953;DHT22;31662;52.262;10.522;2022-08-25T00:20:49;20.10;85.80
45953;DHT22;31662;52.262;10.522;2022-08-25T00:23:16;20.10;86.00
45953;DHT22;31662;52.262;10.522;2022-08-25T00:25:42;20.10;86.70
45953;DHT22;31662;52.262;10.522;2022-08-25T00:28:07;20.00;86.20
45953;DHT22;31662;52.262;10.522;2022-08-25T00:30:34;20.00;85.60
45953;DHT22;31662;52.262;10.522;2022-08-25T00:33:01;20.00;85.50
45953;DHT22;31662;52.262;10.522;2022-08-25T00:35:26;20.00;86.10
45953;DHT22;31662;52.262;10.522;2022-08-25T00:37:52;20.10;86.10
45953;DHT22;31662;52.262;10.522;2022-08-25T00:40:17;20.10;85.80
45953;DHT22;31662;52.262;10.522;2022-08-25T00:42:43;20.10;86.10
45953;DHT22;31662;52.262;10.522;2022-08-25T00:45:09;20.20;85.50
45953;DHT22;31662;52.262;10.522;2022-08-25T00:47:35;20.10;87.10
45953;DHT22;31662;52.262;10.522;2022-08-25T00:50:03;20.00;88.50
45953;DHT22;31662;52.262;10.522;2022-08-25T00:52:38;19.90;88.20
45953;DHT22;31662;52.262;10.522;2022-08-25T00:55:15;19.80;89.80
45953;DHT22;31662;52.262;10.522;2022-08-25T00:57:46;19.70;90.40
45953;DHT22;31662;52.262;10.522;2022-08-25T01:00:16;19.60;90.60
45953;DHT22;31662;52.262;10.522;2022-08-25T01:02:43;19.60;91.20
45953;DHT22;31662;52.262;10.522;2022-08-25T01:05:09;19.50;91.30
45953;DHT22;31662;52.262;10.522;2022-08-25T01:07:35;19.50;91.40
45953;DHT22;31662;52.262;10.522;2022-08-25T01:10:02;19.50;92.00
45953;DHT22;31662;52.262;10.522;2022-08-25T01:12:27;19.50;91.80
45953;DHT22;31662;52.262;10.522;2022-08-25T01:14:54;19.50;92.20
45953;DHT22;31662;52.262;10.522;2022-08-25T01:17:20;19.50;92.10
45953;DHT22;31662;52.262;10.522;2022-08-25T01:19:46;19.50;92.20
45953;DHT22;31662;52.262;10.522;2022-08-25T01:22:12;19.50;92.90
45953;DHT22;31662;52.262;10.522;2022-08-25T01:24:46;19.50;93.20
45953;DHT22;31662;52.262;10.522;2022-08-25T01:27:14;19.40;93.60
45953;DHT22;31662;52.262;10.522;2022-08-25T01:29:40;19.40;93.90
45953;DHT22;31662;52.262;10.522;2022-08-25T01:32:08;19.40;94.20
45953;DHT22;31662;52.262;10.522;2022-08-25T01:34:42;19.40;94.50
45953;DHT22;31662;52.262;10.522;2022-08-25T01:37:10;19.40;94.30
45953;DHT22;31662;52.262;10.522;2022-08-25T01:39:35;19.40;94.60
45953;DHT22;31662;52.262;10.522;2022-08-25T01:44:46;19.40;94.50
45953;DHT22;31662;52.262;10.522;2022-08-25T01:47:12;19.40;94.50
45953;DHT22;31662;52.262;10.522;2022-08-25T01:49:38;19.40;94.60
45953;DHT22;31662;52.262;10.522;2022-08-25T01:52:22;19.40;94.50
45953;DHT22;31662;52.262;10.522;2022-08-25T01:54:48;19.40;95.60
45953;DHT22;31662;52.262;10.522;2022-08-25T01:57:14;19.40;95.90
45953;DHT22;31662;52.262;10.522;2022-08-25T01:59:40;19.30;96.20
45953;DHT22;31662;52.262;10.522;2022-08-25T02:02:06;19.30;96.00
45953;DHT22;31662;52.262;10.522;2022-08-25T02:04:31;19.40;96.10
45953;DHT22;31662;52.262;10.522;2022-08-25T02:06:58;19.50;96.00
45953;DHT22;31662;52.262;10.522;2022-08-25T02:09:24;19.60;95.50
45953;DHT22;31662;52.262;10.522;2022-08-25T02:11:50;19.60;95.70
45953;DHT22;31662;52.262;10.522;2022-08-25T02:14:15;19.50;95.80
45953;DHT22;31662;52.262;10.522;2022-08-25T02:16:46;19.50;96.20
45953;DHT22;31662;52.262;10.522;2022-08-25T02:19:12;19.40;96.90
45953;DHT22;31662;52.262;10.522;2022-08-25T02:21:38;19.40;97.10
45953;DHT22;31662;52.262;10.522;2022-08-25T02:24:04;19.30;97.90
45953;DHT22;31662;52.262;10.522;2022-08-25T02:26:30;19.30;98.30
45953;DHT22;31662;52.262;10.522;2022-08-25T02:28:56;19.20;98.10
45953;DHT22;31662;52.262;10.522;2022-08-25T02:31:23;19.20;98.90
45953;DHT22;31662;52.262;10.522;2022-08-25T02:33:51;19.20;99.10
45953;DHT22;31662;52.262;10.522;2022-08-25T02:36:17;19.20;99.40
45953;DHT22;31662;52.262;10.522;2022-08-25T02:38:43;19.10;99.50
45953;DHT22;31662;52.262;10.522;2022-08-25T02:41:15;19.30;99.30
45953;DHT22;31662;52.262;10.522;2022-08-25T02:43:42;19.40;99.10
45953;DHT22;31662;52.262;10.522;2022-08-25T02:46:08;19.50;98.60
45953;DHT22;31662;52.262;10.522;2022-08-25T02:48:34;19.60;98.30
45953;DHT22;31662;52.262;10.522;2022-08-25T02:51:01;19.60;98.20
45953;DHT22;31662;52.262;10.522;2022-08-25T02:53:28;19.50;98.40
45953;DHT22;31662;52.262;10.522;2022-08-25T02:55:54;19.40;98.60
45953;DHT22;31662;52.262;10.522;2022-08-25T02:58:20;19.40;98.40
45953;DHT22;31662;52.262;10.522;2022-08-25T03:00:46;19.20;98.60
45953;DHT22;31662;52.262;10.522;2022-08-25T03:03:12;19.40;98.60
45953;DHT22;31662;52.262;10.522;2022-08-25T03:05:38;19.30;98.60
45953;DHT22;31662;52.262;10.522;2022-08-25T03:08:04;19.20;98.60
45953;DHT22;31662;52.262;10.522;2022-08-25T03:10:30;19.30;98.60
45953;DHT22;31662;52.262;10.522;2022-08-25T03:12:56;19.40;98.40
45953;DHT22;31662;52.262;10.522;2022-08-25T03:15:21;19.60;98.10
45953;DHT22;31662;52.262;10.522;2022-08-25T03:17:49;19.70;98.00
45953;DHT22;31662;52.262;10.522;2022-08-25T03:20:15;19.70;97.90
45953;DHT22;31662;52.262;10.522;2022-08-25T03:22:41;19.60;98.00
45953;DHT22;31662;52.262;10.522;2022-08-25T03:25:07;19.50;98.10
45953;DHT22;31662;52.262;10.522;2022-08-25T03:27:52;19.50;98.10
45953;DHT22;31662;52.262;10.522;2022-08-25T03:30:18;19.50;98.00
45953;DHT22;31662;52.262;10.522;2022-08-25T03:32:43;19.50;97.90
45953;DHT22;31662;52.262;10.522;2022-08-25T03:35:09;19.50;97.90
45953;DHT22;31662;52.262;10.522;2022-08-25T03:37:36;19.50;97.70
45953;DHT22;31662;52.262;10.522;2022-08-25T03:40:07;19.50;97.70
45953;DHT22;31662;52.262;10.522;2022-08-25T03:42:34;19.50;97.50
45953;DHT22;31662;52.262;10.522;2022-08-25T03:45:03;19.30;99.10
45953;DHT22;31662;52.262;10.522;2022-08-25T03:47:28;19.20;99.90
45953;DHT22;31662;52.262;10.522;2022-08-25T03:49:54;19.00;99.80
45953;DHT22;31662;52.262;10.522;2022-08-25T03:52:20;19.00;99.90
45953;DHT22;31662;52.262;10.522;2022-08-25T03:54:46;19.00;99.90
45953;DHT22;31662;52.262;10.522;2022-08-25T03:57:11;18.90;99.90
45953;DHT22;31662;52.262;10.522;2022-08-25T03:59:37;18.80;99.90
45953;DHT22;31662;52.262;10.522;2022-08-25T04:02:04;18.70;99.90
45953;DHT22;31662;52.262;10.522;2022-08-25T04:04:29;18.70;99.90
45953;DHT22;31662;52.262;10.522;2022-08-25T04:06:55;18.60;99.90
45953;DHT22;31662;52.262;10.522;2022-08-25T04:09:21;18.60;99.90
45953;DHT22;31662;52.262;10.522;2022-08-25T04:11:46;18.60;99.90
45953;DHT22;31662;52.262;10.522;2022-08-25T04:14:12;18.50;99.90
45953;DHT22;31662;52.262;10.522;2022-08-25T04:16:38;18.40;99.90
45953;DHT22;31662;52.262;10.522;2022-08-25T04:19:06;18.40;99.90
45953;DHT22;31662;52.262;10.522;2022-08-25T04:21:34;18.30;99.90
45953;DHT22;31662;52.262;10.522;2022-08-25T04:24:01;18.30;99.90
45953;DHT22;31662;52.262;10.522;2022-08-25T04:26:35;18.30;99.90
45953;DHT22;31662;52.262;10.522;2022-08-25T04:29:02;18.30;99.90
45953;DHT22;31662;52.262;10.522;2022-08-25T04:31:29;18.30;99.90
45953;DHT22;31662;52.262;10.522;2022-08-25T04:33:55;18.40;99.90
45953;DHT22;31662;52.262;10.522;2022-08-25T04:36:21;18.40;99.90
45953;DHT22;31662;52.262;10.522;2022-08-25T04:38:48;18.40;99.90
45953;DHT22;31662;52.262;10.522;2022-08-25T04:41:16;18.50;99.90
45953;DHT22;31662;52.262;10.522;2022-08-25T04:43:43;18.60;99.90
45953;DHT22;31662;52.262;10.522;2022-08-25T04:46:16;18.60;99.90
45953;DHT22;31662;52.262;10.522;2022-08-25T04:48:43;18.70;99.90
45953;DHT22;31662;52.262;10.522;2022-08-25T04:51:11;18.60;99.90
45953;DHT22;31662;52.262;10.522;2022-08-25T04:53:38;18.70;99.90
45953;DHT22;31662;52.262;10.522;2022-08-25T04:56:06;18.70;99.90
45953;DHT22;31662;52.262;10.522;2022-08-25T04:58:32;18.70;99.90
45953;DHT22;31662;52.262;10.522;2022-08-25T05:01:06;18.80;99.90
45953;DHT22;31662;52.262;10.522;2022-08-25T05:03:32;18.80;99.90
45953;DHT22;31662;52.262;10.522;2022-08-25T05:05:57;18.80;99.90
45953;DHT22;31662;52.262;10.522;2022-08-25T05:08:23;18.80;99.90
45953;DHT22;31662;52.262;10.522;2022-08-25T05:10:48;18.90;99.90
45953;DHT22;31662;52.262;10.522;2022-08-25T05:13:15;19.00;99.90
45953;DHT22;31662;52.262;10.522;2022-08-25T05:15:40;19.20;99.90
45953;DHT22;31662;52.262;10.522;2022-08-25T05:18:16;19.40;99.90
45953;DHT22;31662;52.262;10.522;2022-08-25T05:20:41;19.50;99.90
45953;DHT22;31662;52.262;10.522;2022-08-25T05:23:07;19.60;99.90
45953;DHT22;31662;52.262;10.522;2022-08-25T05:25:33;19.70;99.90
45953;DHT22;31662;52.262;10.522;2022-08-25T05:27:59;19.80;99.90
45953;DHT22;31662;52.262;10.522;2022-08-25T05:30:24;19.90;99.90
45953;DHT22;31662;52.262;10.522;2022-08-25T05:32:50;19.90;99.90
45953;DHT22;31662;52.262;10.522;2022-08-25T05:35:15;19.80;99.90
45953;DHT22;31662;52.262;10.522;2022-08-25T05:37:41;19.60;99.90
45953;DHT22;31662;52.262;10.522;2022-08-25T05:40:07;19.50;99.90
45953;DHT22;31662;52.262;10.522;2022-08-25T05:42:33;19.40;99.90
45953;DHT22;31662;52.262;10.522;2022-08-25T05:44:59;19.40;99.90
45953;DHT22;31662;52.262;10.522;2022-08-25T05:47:25;19.40;99.90
45953;DHT22;31662;52.262;10.522;2022-08-25T05:49:50;19.40;99.90
45953;DHT22;31662;52.262;10.522;2022-08-25T05:52:16;19.50;99.90
45953;DHT22;31662;52.262;10.522;2022-08-25T05:54:41;19.70;99.90
45953;DHT22;31662;52.262;10.522;2022-08-25T05:57:07;19.80;99.90
45953;DHT22;31662;52.262;10.522;2022-08-25T05:59:34;20.00;99.90
45953;DHT22;31662;52.262;10.522;2022-08-25T06:01:59;20.00;99.90
45953;DHT22;31662;52.262;10.522;2022-08-25T06:04:43;20.20;99.90
45953;DHT22;31662;52.262;10.522;2022-08-25T06:07:09;20.20;99.90
45953;DHT22;31662;52.262;10.522;2022-08-25T06:09:37;20.40;99.90
45953;DHT22;31662;52.262;10.522;2022-08-25T06:12:03;20.60;99.90
45953;DHT22;31662;52.262;10.522;2022-08-25T06:14:29;20.80;99.90
45953;DHT22;31662;52.262;10.522;2022-08-25T06:16:54;20.90;99.90
45953;DHT22;31662;52.262;10.522;2022-08-25T06:19:21;21.00;99.90
45953;DHT22;31662;52.262;10.522;2022-08-25T06:21:47;21.00;99.90
45953;DHT22;31662;52.262;10.522;2022-08-25T06:24:13;21.10;99.90
45953;DHT22;31662;52.262;10.522;2022-08-25T06:26:39;21.00;99.90
45953;DHT22;31662;52.262;10.522;2022-08-25T06:29:04;21.10;99.90
45953;DHT22;31662;52.262;10.522;2022-08-25T06:31:30;21.20;99.90
45953;DHT22;31662;52.262;10.522;2022-08-25T06:33:55;21.30;99.90
45953;DHT22;31662;52.262;10.522;2022-08-25T06:36:23;21.60;99.90
45953;DHT22;31662;52.262;10.522;2022-08-25T06:38:48;21.80;99.90
45953;DHT22;31662;52.262;10.522;2022-08-25T06:41:14;21.90;99.90
45953;DHT22;31662;52.262;10.522;2022-08-25T06:43:41;21.70;99.90
45953;DHT22;31662;52.262;10.522;2022-08-25T06:48:34;21.70;99.90
45953;DHT22;31662;52.262;10.522;2022-08-25T06:50:59;21.80;99.90
45953;DHT22;31662;52.262;10.522;2022-08-25T06:53:29;21.90;99.90
45953;DHT22;31662;52.262;10.522;2022-08-25T06:55:56;22.00;99.90
45953;DHT22;31662;52.262;10.522;2022-08-25T06:58:22;22.20;99.90
45953;DHT22;31662;52.262;10.522;2022-08-25T07:00:47;22.30;99.90
45953;DHT22;31662;52.262;10.522;2022-08-25T07:03:13;22.40;99.90
45953;DHT22;31662;52.262;10.522;2022-08-25T07:05:39;22.30;99.90
45953;DHT22;31662;52.262;10.522;2022-08-25T07:08:05;22.30;99.90
45953;DHT22;31662;52.262;10.522;2022-08-25T07:10:30;22.30;99.90
45953;DHT22;31662;52.262;10.522;2022-08-25T07:12:56;22.20;99.90
45953;DHT22;31662;52.262;10.522;2022-08-25T07:15:21;22.10;99.90
45953;DHT22;31662;52.262;10.522;2022-08-25T07:17:48;22.20;99.90
45953;DHT22;31662;52.262;10.522;2022-08-25T07:20:13;22.20;99.90
45953;DHT22;31662;52.262;10.522;2022-08-25T07:22:39;22.30;99.90
45953;DHT22;31662;52.262;10.522;2022-08-25T07:25:05;22.40;99.90
45953;DHT22;31662;52.262;10.522;2022-08-25T07:27:31;22.50;99.90
45953;DHT22;31662;52.262;10.522;2022-08-25T07:29:57;22.70;99.90
45953;DHT22;31662;52.262;10.522;2022-08-25T07:32:22;22.80;99.90
45953;DHT22;31662;52.262;10.522;2022-08-25T07:34:48;23.00;99.90
45953;DHT22;31662;52.262;10.522;2022-08-25T07:37:32;23.10;99.90
45953;DHT22;31662;52.262;10.522;2022-08-25T07:40:02;23.20;99.90
45953;DHT22;31662;52.262;10.522;2022-08-25T07:42:28;23.30;99.90
45953;DHT22;31662;52.262;10.522;2022-08-25T07:44:53;23.30;99.90
45953;DHT22;31662;52.262;10.522;2022-08-25T07:47:18;23.20;99.90
45953;DHT22;31662;52.262;10.522;2022-08-25T07:49:44;23.20;99.90
45953;DHT22;31662;52.262;10.522;2022-08-25T07:52:09;23.30;99.90
45953;DHT22;31662;52.262;10.522;2022-08-25T07:54:35;23.50;99.90
45953;DHT22;31662;52.262;10.522;2022-08-25T07:57:02;23.70;99.90
45953;DHT22;31662;52.262;10.522;2022-08-25T07:59:28;23.80;99.90
45953;DHT22;31662;52.262;10.522;2022-08-25T08:01:54;23.90;99.90
45953;DHT22;31662;52.262;10.522;2022-08-25T08:04:19;23.90;99.90
45953;DHT22;31662;52.262;10.522;2022-08-25T08:06:45;24.00;99.90
45953;DHT22;31662;52.262;10.522;2022-08-25T08:09:11;24.20;99.90
45953;DHT22;31662;52.262;10.522;2022-08-25T08:11:37;24.40;99.90
45953;DHT22;31662;52.262;10.522;2022-08-25T08:14:05;24.60;99.80
45953;DHT22;31662;52.262;10.522;2022-08-25T08:16:31;24.70;99.60
45953;DHT22;31662;52.262;10.522;2022-08-25T08:18:58;24.70;99.50
45953;DHT22;31662;52.262;10.522;2022-08-25T08:21:26;24.60;99.40
45953;DHT22;31662;52.262;10.522;2022-08-25T08:23:53;24.60;99.60
45953;DHT22;31662;52.262;10.522;2022-08-25T08:26:20;24.70;99.50
45953;DHT22;31662;52.262;10.522;2022-08-25T08:28:46;24.70;99.60
45953;DHT22;31662;52.262;10.522;2022-08-25T08:31:12;24.90;99.30
45953;DHT22;31662;52.262;10.522;2022-08-25T08:33:38;25.10;98.90
45953;DHT22;31662;52.262;10.522;2022-08-25T08:36:07;25.10;98.80
45953;DHT22;31662;52.262;10.522;2022-08-25T08:38:34;25.10;98.60
45953;DHT22;31662;52.262;10.522;2022-08-25T08:44:19;25.10;98.50
45953;DHT22;31662;52.262;10.522;2022-08-25T08:49:51;25.30;98.70
45953;DHT22;31662;52.262;10.522;2022-08-25T08:52:27;25.50;98.40
45953;DHT22;31662;52.262;10.522;2022-08-25T08:55:01;25.50;98.00
45953;DHT22;31662;52.262;10.522;2022-08-25T08:57:28;25.40;98.00
45953;DHT22;31662;52.262;10.522;2022-08-25T08:59:59;25.50;98.10
45953;DHT22;31662;52.262;10.522;2022-08-25T09:02:39;25.60;97.60
45953;DHT22;31662;52.262;10.522;2022-08-25T09:05:13;25.70;97.50
45953;DHT22;31662;52.262;10.522;2022-08-25T09:07:48;25.70;97.20
45953;DHT22;31662;52.262;10.522;2022-08-25T09:10:16;25.70;97.10
45953;DHT22;31662;52.262;10.522;2022-08-25T09:13:07;25.70;97.20
45953;DHT22;31662;52.262;10.522;2022-08-25T09:15:51;25.80;97.20
45953;DHT22;31662;52.262;10.522;2022-08-25T09:18:46;25.80;96.80
45953;DHT22;31662;52.262;10.522;2022-08-25T09:21:33;25.90;96.90
45953;DHT22;31662;52.262;10.522;2022-08-25T09:24:12;25.90;96.40
45953;DHT22;31662;52.262;10.522;2022-08-25T09:27:18;25.80;96.40
45953;DHT22;31662;52.262;10.522;2022-08-25T09:32:31;25.70;96.40
45953;DHT22;31662;52.262;10.522;2022-08-25T09:34:59;25.80;96.30
45953;DHT22;31662;52.262;10.522;2022-08-25T09:37:25;26.00;96.00
45953;DHT22;31662;52.262;10.522;2022-08-25T09:39:51;26.20;95.30
45953;DHT22;31662;52.262;10.522;2022-08-25T09:42:18;26.20;95.40
45953;DHT22;31662;52.262;10.522;2022-08-25T09:44:45;26.20;95.30
45953;DHT22;31662;52.262;10.522;2022-08-25T09:49:49;26.10;94.80
45953;DHT22;31662;52.262;10.522;2022-08-25T09:52:31;26.10;94.90
45953;DHT22;31662;52.262;10.522;2022-08-25T09:55:26;26.30;94.70
45953;DHT22;31662;52.262;10.522;2022-08-25T09:57:55;26.30;94.40
45953;DHT22;31662;52.262;10.522;2022-08-25T10:05:30;25.90;94.50
45953;DHT22;31662;52.262;10.522;2022-08-25T10:08:02;25.80;94.50
45953;DHT22;31662;52.262;10.522;2022-08-25T10:10:31;25.70;94.70
45953;DHT22;31662;52.262;10.522;2022-08-25T10:12:57;25.60;94.80
45953;DHT22;31662;52.262;10.522;2022-08-25T10:15:34;25.50;94.90
45953;DHT22;31662;52.262;10.522;2022-08-25T10:18:20;25.60;95.20
45953;DHT22;31662;52.262;10.522;2022-08-25T10:21:14;25.50;95.10
45953;DHT22;31662;52.262;10.522;2022-08-25T10:26:21;25.80;95.40
45953;DHT22;31662;52.262;10.522;2022-08-25T10:29:11;26.20;94.70
45953;DHT22;31662;52.262;10.522;2022-08-25T10:32:43;26.50;94.40
45953;DHT22;31662;52.262;10.522;2022-08-25T10:34:56;26.70;93.60
45953;DHT22;31662;52.262;10.522;2022-08-25T10:45:21;26.50;93.10
45953;DHT22;31662;52.262;10.522;2022-08-25T10:48:17;26.60;93.00
45953;DHT22;31662;52.262;10.522;2022-08-25T10:53:44;27.20;92.00
45953;DHT22;31662;52.262;10.522;2022-08-25T10:56:20;27.40;91.90
45953;DHT22;31662;52.262;10.522;2022-08-25T11:02:01;27.50;91.40
45953;DHT22;31662;52.262;10.522;2022-08-25T11:05:09;27.40;91.80
45953;DHT22;31662;52.262;10.522;2022-08-25T11:07:40;27.60;91.10
45953;DHT22;31662;52.262;10.522;2022-08-25T11:10:11;27.50;91.40
45953;DHT22;31662;52.262;10.522;2022-08-25T11:12:41;27.40;91.50
45953;DHT22;31662;52.262;10.522;2022-08-25T11:15:16;27.30;91.20
45953;DHT22;31662;52.262;10.522;2022-08-25T11:17:57;27.10;91.50
45953;DHT22;31662;52.262;10.522;2022-08-25T11:20:31;26.90;91.70
45953;DHT22;31662;52.262;10.522;2022-08-25T11:23:20;26.80;91.80
45953;DHT22;31662;52.262;10.522;2022-08-25T11:25:51;26.60;91.90
45953;DHT22;31662;52.262;10.522;2022-08-25T11:28:35;26.50;91.90
45953;DHT22;31662;52.262;10.522;2022-08-25T11:31:05;26.50;91.90
45953;DHT22;31662;52.262;10.522;2022-08-25T11:33:32;26.50;91.90
45953;DHT22;31662;52.262;10.522;2022-08-25T11:41:59;26.70;91.70
45953;DHT22;31662;52.262;10.522;2022-08-25T11:45:00;26.80;91.50
45953;DHT22;31662;52.262;10.522;2022-08-25T11:47:49;26.80;91.30
45953;DHT22;31662;52.262;10.522;2022-08-25T11:50:34;26.80;91.30
45953;DHT22;31662;52.262;10.522;2022-08-25T11:53:23;26.90;90.80
45953;DHT22;31662;52.262;10.522;2022-08-25T11:55:52;26.90;90.90
45953;DHT22;31662;52.262;10.522;2022-08-25T12:00:54;27.10;90.70
45953;DHT22;31662;52.262;10.522;2022-08-25T12:27:37;27.60;90.10
45953;DHT22;31662;52.262;10.522;2022-08-25T12:33:12;27.50;90.00
45953;DHT22;31662;52.262;10.522;2022-08-25T12:36:00;27.50;89.30
45953;DHT22;31662;52.262;10.522;2022-08-25T12:38:30;27.40;89.10
45953;DHT22;31662;52.262;10.522;2022-08-25T12:41:06;27.40;89.20
45953;DHT22;31662;52.262;10.522;2022-08-25T12:43:35;27.50;88.50
45953;DHT22;31662;52.262;10.522;2022-08-25T12:49:27;27.30;88.90
45953;DHT22;31662;52.262;10.522;2022-08-25T12:51:58;27.30;89.20
45953;DHT22;31662;52.262;10.522;2022-08-25T12:57:06;27.20;88.60
45953;DHT22;31662;52.262;10.522;2022-08-25T12:59:41;27.20;87.90
45953;DHT22;31662;52.262;10.522;2022-08-25T13:11:08;27.30;87.80
45953;DHT22;31662;52.262;10.522;2022-08-25T13:16:20;27.60;87.90
45953;DHT22;31662;52.262;10.522;2022-08-25T13:18:46;27.60;87.20
45953;DHT22;31662;52.262;10.522;2022-08-25T13:21:28;27.70;86.60
45953;DHT22;31662;52.262;10.522;2022-08-25T13:23:57;27.90;86.40
45953;DHT22;31662;52.262;10.522;2022-08-25T13:26:29;28.00;85.80
45953;DHT22;31662;52.262;10.522;2022-08-25T13:29:22;28.00;85.30
45953;DHT22;31662;52.262;10.522;2022-08-25T13:31:53;27.80;84.50
45953;DHT22;31662;52.262;10.522;2022-08-25T13:34:22;27.70;85.50
45953;DHT22;31662;52.262;10.522;2022-08-25T13:36:48;27.60;85.40
45953;DHT22;31662;52.262;10.522;2022-08-25T13:39:34;27.70;85.70
45953;DHT22;31662;52.262;10.522;2022-08-25T13:42:03;28.00;84.80
45953;DHT22;31662;52.262;10.522;2022-08-25T13:44:34;28.20;83.60
45953;DHT22;31662;52.262;10.522;2022-08-25T13:47:06;28.10;83.30
45953;DHT22;31662;52.262;10.522;2022-08-25T13:49:33;27.90;83.70
45953;DHT22;31662;52.262;10.522;2022-08-25T13:51:59;28.00;84.00
45953;DHT22;31662;52.262;10.522;2022-08-25T13:54:28;28.10;83.60
45953;DHT22;31662;52.262;10.522;2022-08-25T13:57:04;28.10;83.30
45953;DHT22;31662;52.262;10.522;2022-08-25T13:59:35;28.10;83.00
45953;DHT22;31662;52.262;10.522;2022-08-25T14:02:02;28.10;83.70
45953;DHT22;31662;52.262;10.522;2022-08-25T14:04:32;28.10;83.40
45953;DHT22;31662;52.262;10.522;2022-08-25T14:10:08;28.10;83.40
45953;DHT22;31662;52.262;10.522;2022-08-25T14:12:40;28.10;83.20
45953;DHT22;31662;52.262;10.522;2022-08-25T14:17:32;28.10;82.80
45953;DHT22;31662;52.262;10.522;2022-08-25T14:19:58;28.20;81.70
45953;DHT22;31662;52.262;10.522;2022-08-25T14:22:24;28.10;81.70
45953;DHT22;31662;52.262;10.522;2022-08-25T14:24:52;28.10;81.90
45953;DHT22;31662;52.262;10.522;2022-08-25T14:27:18;28.10;82.00
45953;DHT22;31662;52.262;10.522;2022-08-25T14:29:43;28.10;82.00
45953;DHT22;31662;52.262;10.522;2022-08-25T14:32:09;28.20;81.90
45953;DHT22;31662;52.262;10.522;2022-08-25T14:34:36;28.30;81.30
45953;DHT22;31662;52.262;10.522;2022-08-25T14:37:17;28.40;81.20
45953;DHT22;31662;52.262;10.522;2022-08-25T14:39:43;28.50;81.30
45953;DHT22;31662;52.262;10.522;2022-08-25T14:42:09;28.60;80.70
45953;DHT22;31662;52.262;10.522;2022-08-25T14:44:34;28.70;79.80
45953;DHT22;31662;52.262;10.522;2022-08-25T14:47:00;28.70;79.60
45953;DHT22;31662;52.262;10.522;2022-08-25T14:49:33;28.70;79.80
45953;DHT22;31662;52.262;10.522;2022-08-25T14:52:05;28.70;80.00
45953;DHT22;31662;52.262;10.522;2022-08-25T14:54:32;28.60;80.10
45953;DHT22;31662;52.262;10.522;2022-08-25T14:56:57;28.70;80.10
45953;DHT22;31662;52.262;10.522;2022-08-25T14:59:23;28.80;80.00
45953;DHT22;31662;52.262;10.522;2022-08-25T15:01:49;28.90;80.00
45953;DHT22;31662;52.262;10.522;2022-08-25T15:04:21;28.90;79.50
45953;DHT22;31662;52.262;10.522;2022-08-25T15:06:50;28.80;79.20
45953;DHT22;31662;52.262;10.522;2022-08-25T15:09:17;28.60;79.70
45953;DHT22;31662;52.262;10.522;2022-08-25T15:11:47;28.50;80.10
45953;DHT22;31662;52.262;10.522;2022-08-25T15:14:15;28.50;80.30
45953;DHT22;31662;52.262;10.522;2022-08-25T15:16:50;28.50;80.30
45953;DHT22;31662;52.262;10.522;2022-08-25T15:19:20;28.50;80.30
45953;DHT22;31662;52.262;10.522;2022-08-25T15:21:47;28.40;80.20
45953;DHT22;31662;52.262;10.522;2022-08-25T15:24:14;28.30;80.00
45953;DHT22;31662;52.262;10.522;2022-08-25T15:29:15;28.40;79.90
45953;DHT22;31662;52.262;10.522;2022-08-25T15:31:42;28.40;79.90
45953;DHT22;31662;52.262;10.522;2022-08-25T15:34:07;28.50;79.60
45953;DHT22;31662;52.262;10.522;2022-08-25T15:36:34;28.50;79.50
45953;DHT22;31662;52.262;10.522;2022-08-25T15:39:00;28.50;79.20
45953;DHT22;31662;52.262;10.522;2022-08-25T15:41:26;28.60;79.00
45953;DHT22;31662;52.262;10.522;2022-08-25T15:43:54;28.60;79.00
45953;DHT22;31662;52.262;10.522;2022-08-25T15:46:20;28.60;78.90
45953;DHT22;31662;52.262;10.522;2022-08-25T15:48:48;28.70;78.60
45953;DHT22;31662;52.262;10.522;2022-08-25T15:51:14;28.70;78.40
45953;DHT22;31662;52.262;10.522;2022-08-25T15:53:40;28.70;78.60
45953;DHT22;31662;52.262;10.522;2022-08-25T15:56:06;28.70;78.60
45953;DHT22;31662;52.262;10.522;2022-08-25T15:58:32;28.70;78.50
45953;DHT22;31662;52.262;10.522;2022-08-25T16:00:59;28.80;78.60
45953;DHT22;31662;52.262;10.522;2022-08-25T16:03:25;28.80;78.60
45953;DHT22;31662;52.262;10.522;2022-08-25T16:05:50;28.90;78.50
45953;DHT22;31662;52.262;10.522;2022-08-25T16:08:16;29.00;78.40
45953;DHT22;31662;52.262;10.522;2022-08-25T16:10:42;28.90;78.00
45953;DHT22;31662;52.262;10.522;2022-08-25T16:13:09;28.90;78.10
45953;DHT22;31662;52.262;10.522;2022-08-25T16:15:35;28.80;78.20
45953;DHT22;31662;52.262;10.522;2022-08-25T16:18:02;28.70;77.70
45953;DHT22;31662;52.262;10.522;2022-08-25T16:20:30;28.60;78.00
45953;DHT22;31662;52.262;10.522;2022-08-25T16:22:56;28.60;78.20
45953;DHT22;31662;52.262;10.522;2022-08-25T16:25:25;28.60;78.40
45953;DHT22;31662;52.262;10.522;2022-08-25T16:27:51;28.50;77.80
45953;DHT22;31662;52.262;10.522;2022-08-25T16:30:16;28.50;78.10
45953;DHT22;31662;52.262;10.522;2022-08-25T16:32:42;28.40;78.40
45953;DHT22;31662;52.262;10.522;2022-08-25T16:35:08;28.40;78.40
45953;DHT22;31662;52.262;10.522;2022-08-25T16:37:34;28.30;78.50
45953;DHT22;31662;52.262;10.522;2022-08-25T16:40:00;28.30;78.30
45953;DHT22;31662;52.262;10.522;2022-08-25T16:42:26;28.30;78.60
45953;DHT22;31662;52.262;10.522;2022-08-25T16:44:53;28.20;78.60
45953;DHT22;31662;52.262;10.522;2022-08-25T16:47:18;28.20;78.70
45953;DHT22;31662;52.262;10.522;2022-08-25T16:49:44;28.20;78.90
45953;DHT22;31662;52.262;10.522;2022-08-25T16:52:10;28.10;79.00
45953;DHT22;31662;52.262;10.522;2022-08-25T16:54:55;28.10;79.10
45953;DHT22;31662;52.262;10.522;2022-08-25T16:57:41;28.10;79.10
45953;DHT22;31662;52.262;10.522;2022-08-25T17:00:09;28.10;79.20
45953;DHT22;31662;52.262;10.522;2022-08-25T17:02:37;28.00;79.30
45953;DHT22;31662;52.262;10.522;2022-08-25T17:05:03;27.90;79.50
45953;DHT22;31662;52.262;10.522;2022-08-25T17:07:30;27.80;79.80